Time;durP1;ratioP1;P1;durP2;ratioP2;P2;SDS_P1;SDS_P2;PMS_P1;PMS_P2;Temp;Humidity;BMP_temperature;BMP_pressure;BME280_temperature;BME280_humidity;BME280_pressure;Samples;Min_cycle;Max_cycle;Signal;HPM_P1;HPM_P2
2024/01/14 00:02:13;;;;;;;25.55;11.68;;;4.20;63.90;;;;;;6257744;28;20025;-71
2024/01/14 00:05:14;;;;;;;21.60;10.10;;;4.20;63.90;;;;;;6247612;28;20017;-71
2024/01/14 00:08:14;;;;;;;22.60;11.35;;;4.20;64.00;;;;;;6246241;28;20124;-71
2024/01/14 00:11:15;;;;;;;17.80;8.82;;;4.20;63.90;;;;;;6245917;28;20126;-71
2024/01/14 00:14:16;;;;;;;22.42;9.73;;;4.20;64.00;;;;;;6243404;28;20083;-71
2024/01/14 00:17:18;;;;;;;28.02;10.73;;;4.30;64.10;;;;;;6239764;28;20021;-70
2024/01/14 00:20:18;;;;;;;36.13;10.65;;;4.20;64.00;;;;;;6231046;28;20102;-70
2024/01/14 00:23:20;;;;;;;31.15;10.45;;;4.20;64.10;;;;;;6252912;28;20422;-72
2024/01/14 00:26:20;;;;;;;20.15;9.63;;;4.20;64.10;;;;;;6232743;28;20025;-71
2024/01/14 00:29:21;;;;;;;30.20;10.10;;;4.20;64.10;;;;;;6244881;28;20509;-71
2024/01/14 00:32:23;;;;;;;28.65;11.48;;;4.20;64.10;;;;;;6244610;28;20039;-71
2024/01/14 00:35:24;;;;;;;18.05;8.85;;;4.20;64.10;;;;;;6248644;28;20018;-70
2024/01/14 00:38:24;;;;;;;21.98;10.20;;;4.30;64.10;;;;;;6246509;28;20013;-70
2024/01/14 00:41:25;;;;;;;25.52;11.35;;;4.30;63.90;;;;;;6259015;28;20112;-71
2024/01/14 00:44:26;;;;;;;23.35;10.00;;;4.30;63.90;;;;;;6251243;28;20021;-71
2024/01/14 00:47:30;;;;;;;25.88;10.20;;;4.30;63.90;;;;;;6251807;28;20540;-73
2024/01/14 00:50:31;;;;;;;20.92;9.77;;;4.30;63.90;;;;;;6247246;28;20023;-72
2024/01/14 00:53:31;;;;;;;20.73;9.88;;;4.20;64.00;;;;;;6245484;28;20036;-72
2024/01/14 00:56:32;;;;;;;23.05;10.82;;;4.20;64.10;;;;;;6241733;28;20021;-72
2024/01/14 00:59:33;;;;;;;19.05;10.02;;;4.20;64.10;;;;;;6249566;28;20017;-71
2024/01/14 01:02:34;;;;;;;31.98;11.25;;;4.20;64.10;;;;;;6248468;28;20096;-71
2024/01/14 01:05:35;;;;;;;23.42;8.40;;;4.20;64.10;;;;;;6245251;28;20505;-72
2024/01/14 01:08:36;;;;;;;23.27;11.63;;;4.20;64.10;;;;;;6253843;28;20144;-72
2024/01/14 01:11:36;;;;;;;24.88;11.35;;;4.20;64.20;;;;;;6255760;28;20453;-72
2024/01/14 01:14:39;;;;;;;25.10;9.35;;;4.20;64.20;;;;;;6248654;28;20024;-71
2024/01/14 01:17:40;;;;;;;26.33;10.18;;;4.30;64.20;;;;;;6245412;28;20036;-69
2024/01/14 01:20:40;;;;;;;29.55;10.52;;;4.30;64.20;;;;;;6245665;28;20017;-71
2024/01/14 01:23:41;;;;;;;27.90;7.55;;;4.30;64.20;;;;;;6249956;28;20029;-72
2024/01/14 01:26:45;;;;;;;24.25;11.48;;;4.30;64.10;;;;;;6243993;28;20048;-71
2024/01/14 01:29:46;;;;;;;19.98;8.60;;;4.30;63.90;;;;;;6212506;28;20026;-72
2024/01/14 01:32:46;;;;;;;21.10;9.93;;;4.20;63.90;;;;;;6231998;28;20037;-71
2024/01/14 01:35:47;;;;;;;20.52;9.50;;;4.20;64.10;;;;;;6278351;28;20029;-70
2024/01/14 01:38:48;;;;;;;22.65;10.52;;;4.20;64.10;;;;;;6240207;28;20033;-71
2024/01/14 01:41:51;;;;;;;19.55;8.43;;;4.20;64.20;;;;;;6245986;28;20114;-71
2024/01/14 01:44:51;;;;;;;18.92;6.80;;;4.20;64.30;;;;;;6242775;28;20052;-73
2024/01/14 01:47:52;;;;;;;23.95;10.77;;;4.20;64.20;;;;;;6248590;28;20119;-71
2024/01/14 01:50:54;;;;;;;23.20;11.30;;;4.30;64.20;;;;;;6252672;28;20357;-71
2024/01/14 01:53:56;;;;;;;19.58;8.25;;;4.30;64.20;;;;;;6246706;28;20021;-70
2024/01/14 01:56:57;;;;;;;20.45;9.50;;;4.30;64.30;;;;;;6243711;28;20025;-70
2024/01/14 01:59:59;;;;;;;16.27;8.32;;;4.20;64.20;;;;;;6275073;28;20026;-71
2024/01/14 02:03:02;;;;;;;23.85;10.48;;;4.30;64.20;;;;;;6229607;28;20033;-70
2024/01/14 02:06:05;;;;;;;15.23;8.30;;;4.30;64.20;;;;;;6243853;28;20017;-71
2024/01/14 02:09:10;;;;;;;22.17;10.07;;;4.30;64.20;;;;;;6247538;28;20104;-72
2024/01/14 02:12:11;;;;;;;18.27;9.38;;;4.30;64.10;;;;;;6249865;28;20029;-70
2024/01/14 02:15:11;;;;;;;23.42;8.13;;;4.30;64.00;;;;;;6252138;28;20531;-72
2024/01/14 02:18:12;;;;;;;29.48;10.70;;;4.30;64.70;;;;;;6262577;28;20115;-72
2024/01/14 02:21:19;;;;;;;19.25;9.80;;;4.40;63.80;;;;;;6251353;28;20021;-71
2024/01/14 02:24:28;;;;;;;23.88;10.32;;;4.40;63.90;;;;;;6249908;28;20514;-71
2024/01/14 02:27:29;;;;;;;17.33;7.78;;;4.30;63.90;;;;;;6243501;28;20370;-71
2024/01/14 02:30:30;;;;;;;19.65;9.55;;;4.30;63.90;;;;;;6265402;28;20029;-70
2024/01/14 02:33:31;;;;;;;32.10;9.07;;;4.30;63.90;;;;;;6250817;28;20052;-71
2024/01/14 02:36:31;;;;;;;16.25;9.43;;;4.30;63.70;;;;;;6258866;28;20404;-71
2024/01/14 02:39:34;;;;;;;20.63;10.25;;;4.40;63.60;;;;;;6249430;28;20013;-71
2024/01/14 02:42:34;;;;;;;20.13;7.13;;;4.40;63.60;;;;;;6237868;28;20064;-72
2024/01/14 02:45:35;;;;;;;25.38;8.98;;;4.40;63.60;;;;;;6249698;28;20060;-70
2024/01/14 02:48:37;;;;;;;18.15;8.40;;;4.30;63.50;;;;;;6249428;28;20022;-72
2024/01/14 02:51:38;;;;;;;20.70;7.47;;;4.30;63.60;;;;;;6257925;28;20506;-71
2024/01/14 02:54:39;;;;;;;19.33;9.18;;;4.30;63.40;;;;;;6248356;28;20017;-72
2024/01/14 02:57:40;;;;;;;19.30;8.32;;;4.30;63.50;;;;;;6240989;28;20436;-69
2024/01/14 03:00:41;;;;;;;19.40;10.00;;;4.30;63.60;;;;;;6249619;28;20048;-72
2024/01/14 03:03:42;;;;;;;21.20;9.35;;;4.30;63.50;;;;;;6247622;28;20351;-72
2024/01/14 03:06:44;;;;;;;22.00;7.93;;;4.20;63.50;;;;;;6264731;28;20418;-72
2024/01/14 03:09:44;;;;;;;26.40;11.77;;;4.20;63.70;;;;;;6264466;28;20028;-72
2024/01/14 03:12:45;;;;;;;21.55;8.68;;;4.10;63.70;;;;;;6217706;28;20033;-72
2024/01/14 03:15:46;;;;;;;19.35;9.70;;;4.20;63.80;;;;;;6242636;28;20179;-71
2024/01/14 03:18:49;;;;;;;14.63;7.38;;;4.10;63.80;;;;;;6251196;28;20098;-71
2024/01/14 03:21:51;;;;;;;14.57;7.95;;;4.10;64.00;;;;;;6258245;28;20217;-70
2024/01/14 03:24:52;;;;;;;19.38;9.80;;;4.10;64.10;;;;;;6247027;28;20025;-71
2024/01/14 03:27:54;;;;;;;18.80;8.52;;;4.10;64.20;;;;;;6234622;28;20471;-71
2024/01/14 03:30:55;;;;;;;23.20;8.07;;;4.00;64.20;;;;;;6229619;28;20049;-70
2024/01/14 03:33:56;;;;;;;24.13;9.55;;;3.90;64.20;;;;;;6245663;28;20054;-71
2024/01/14 03:36:56;;;;;;;21.25;11.20;;;3.90;64.40;;;;;;6246835;28;20501;-71
2024/01/14 03:39:58;;;;;;;20.98;8.45;;;3.90;64.50;;;;;;6248863;28;20089;-71
2024/01/14 03:42:58;;;;;;;18.48;7.47;;;3.90;64.40;;;;;;6245789;28;20035;-71
2024/01/14 03:45:59;;;;;;;18.63;8.05;;;3.90;64.40;;;;;;6247512;28;20021;-70
2024/01/14 03:49:00;;;;;;;14.82;7.88;;;3.80;64.40;;;;;;6248311;28;20017;-70
2024/01/14 03:52:01;;;;;;;18.60;8.70;;;3.80;64.70;;;;;;6285591;28;20457;-71
2024/01/14 03:55:01;;;;;;;18.95;10.00;;;3.70;64.80;;;;;;6248603;28;20024;-71
2024/01/14 03:58:02;;;;;;;17.05;9.65;;;3.70;65.10;;;;;;6253157;28;20132;-71
2024/01/14 04:01:03;;;;;;;18.50;8.45;;;3.60;65.10;;;;;;6249742;28;20017;-70
2024/01/14 04:04:04;;;;;;;26.38;10.80;;;3.60;65.30;;;;;;6247941;28;20038;-71
2024/01/14 04:07:05;;;;;;;18.05;7.38;;;3.70;65.40;;;;;;6229491;28;20031;-72
2024/01/14 04:10:06;;;;;;;25.60;10.52;;;3.60;65.30;;;;;;6249449;28;20079;-72
2024/01/14 04:13:07;;;;;;;18.77;9.65;;;3.60;65.40;;;;;;6249235;28;20029;-69
2024/01/14 04:16:08;;;;;;;28.27;8.77;;;3.60;65.50;;;;;;6247809;28;21521;-70
2024/01/14 04:19:08;;;;;;;18.75;9.52;;;3.50;65.50;;;;;;6243796;28;20024;-71
2024/01/14 04:22:09;;;;;;;17.92;8.55;;;3.50;65.80;;;;;;6251097;28;20076;-71
2024/01/14 04:25:10;;;;;;;26.63;9.80;;;3.40;65.90;;;;;;6247209;28;20548;-71
2024/01/14 04:28:11;;;;;;;25.08;9.82;;;3.40;65.90;;;;;;6243904;28;20021;-71
2024/01/14 04:31:12;;;;;;;25.00;10.25;;;3.40;65.90;;;;;;6261143;28;20057;-71
2024/01/14 04:34:12;;;;;;;19.73;9.55;;;3.50;65.90;;;;;;6244522;28;20028;-71
2024/01/14 04:37:15;;;;;;;17.27;9.52;;;3.50;65.90;;;;;;6260962;28;20033;-72
2024/01/14 04:40:15;;;;;;;17.80;9.15;;;3.50;65.90;;;;;;6244464;28;20017;-71
2024/01/14 04:43:17;;;;;;;17.17;8.98;;;3.50;65.80;;;;;;6268822;28;20132;-71
2024/01/14 04:46:20;;;;;;;17.30;7.28;;;3.60;66.70;;;;;;6277120;28;20032;-72
2024/01/14 04:49:21;;;;;;;19.55;9.80;;;3.50;65.70;;;;;;6243066;28;20024;-71
2024/01/14 04:52:22;;;;;;;13.15;7.50;;;3.60;65.90;;;;;;6232256;28;20025;-71
2024/01/14 04:55:23;;;;;;;18.55;7.57;;;3.60;65.80;;;;;;6246923;28;20033;-71
2024/01/14 04:58:24;;;;;;;22.85;9.68;;;3.60;65.70;;;;;;6248828;28;20021;-71
2024/01/14 05:01:25;;;;;;;31.85;9.50;;;3.60;65.50;;;;;;6259528;28;20044;-71
2024/01/14 05:04:27;;;;;;;17.25;8.85;;;3.60;65.50;;;;;;6250609;28;20029;-71
2024/01/14 05:07:27;;;;;;;12.98;6.25;;;3.60;65.50;;;;;;6248267;28;20131;-72
2024/01/14 05:10:28;;;;;;;24.08;6.45;;;3.50;65.40;;;;;;6245705;28;20025;-71
2024/01/14 05:13:30;;;;;;;16.63;8.75;;;3.50;65.40;;;;;;6267399;28;20752;-71
2024/01/14 05:16:33;;;;;;;23.13;8.95;;;3.50;65.50;;;;;;6247464;28;20024;-69
2024/01/14 05:19:34;;;;;;;22.35;10.10;;;3.40;65.70;;;;;;6260545;28;20036;-70
2024/01/14 05:22:35;;;;;;;19.77;8.38;;;3.40;65.70;;;;;;6245720;28;20021;-70
2024/01/14 05:25:36;;;;;;;16.65;9.32;;;3.50;65.90;;;;;;6252015;28;20432;-70
2024/01/14 05:28:36;;;;;;;15.35;6.80;;;3.40;65.90;;;;;;6247707;28;20029;-71
2024/01/14 05:31:37;;;;;;;31.00;11.43;;;3.50;65.90;;;;;;6244952;28;20132;-70
2024/01/14 05:34:38;;;;;;;18.90;9.88;;;3.40;65.90;;;;;;6245150;28;20033;-70
2024/01/14 05:37:39;;;;;;;21.92;9.98;;;3.40;65.90;;;;;;6249013;28;20508;-71
2024/01/14 05:40:40;;;;;;;13.48;7.95;;;3.40;66.00;;;;;;6245560;28;20072;-71
2024/01/14 05:43:41;;;;;;;19.25;10.43;;;3.40;66.10;;;;;;6254538;28;20113;-72
2024/01/14 05:46:41;;;;;;;30.80;8.88;;;3.40;66.30;;;;;;6248526;28;20025;-72
2024/01/14 05:49:42;;;;;;;19.45;8.18;;;3.40;66.20;;;;;;6247486;28;20021;-71
2024/01/14 05:52:43;;;;;;;15.55;7.63;;;3.40;66.10;;;;;;6247474;28;20082;-70
2024/01/14 05:55:44;;;;;;;22.40;7.47;;;3.40;66.20;;;;;;6252735;28;20731;-71
2024/01/14 05:58:45;;;;;;;19.27;8.90;;;3.40;66.10;;;;;;6249459;28;20025;-72
2024/01/14 06:01:46;;;;;;;17.42;10.40;;;3.40;66.00;;;;;;6247797;28;20127;-72
2024/01/14 06:04:46;;;;;;;25.38;10.07;;;3.40;66.20;;;;;;6250423;28;20369;-70
2024/01/14 06:07:47;;;;;;;20.05;10.95;;;3.40;66.30;;;;;;6247244;28;20205;-71
2024/01/14 06:10:48;;;;;;;23.25;9.70;;;3.50;66.30;;;;;;6246870;28;20481;-71
2024/01/14 06:13:49;;;;;;;18.27;8.18;;;3.50;66.20;;;;;;6256542;28;20594;-72
2024/01/14 06:16:49;;;;;;;9.27;6.18;;;3.50;66.10;;;;;;6248885;28;20468;-73
2024/01/14 06:19:50;;;;;;;24.98;9.30;;;3.50;65.80;;;;;;6248856;28;20032;-73
2024/01/14 06:22:51;;;;;;;20.60;8.27;;;3.50;65.70;;;;;;6256395;28;20080;-72
2024/01/14 06:25:52;;;;;;;22.65;8.70;;;3.40;65.90;;;;;;6248884;28;20025;-72
2024/01/14 06:28:53;;;;;;;20.92;9.95;;;3.40;65.90;;;;;;6251567;28;20158;-69
2024/01/14 06:31:53;;;;;;;28.25;10.15;;;3.40;65.70;;;;;;6251491;28;20041;-71
2024/01/14 06:34:55;;;;;;;19.15;9.48;;;3.40;65.80;;;;;;6245964;28;20029;-72
2024/01/14 06:37:55;;;;;;;21.85;8.82;;;3.40;65.80;;;;;;6246903;28;20696;-72
2024/01/14 06:40:56;;;;;;;21.52;9.35;;;3.40;65.70;;;;;;6231805;28;20039;-72
2024/01/14 06:43:57;;;;;;;23.98;7.88;;;3.30;65.50;;;;;;6247661;28;20385;-72
2024/01/14 06:46:59;;;;;;;17.65;9.02;;;3.20;65.50;;;;;;6242029;28;20033;-72
2024/01/14 06:49:59;;;;;;;19.05;8.60;;;3.20;65.70;;;;;;6249105;28;20025;-70
2024/01/14 06:53:00;;;;;;;21.33;8.73;;;3.10;65.70;;;;;;6248976;28;20071;-71
2024/01/14 06:56:02;;;;;;;16.27;7.90;;;3.20;66.70;;;;;;6248033;28;20071;-71
2024/01/14 06:59:03;;;;;;;27.67;9.95;;;3.10;66.00;;;;;;6253841;28;20032;-70
2024/01/14 07:02:05;;;;;;;26.70;11.07;;;3.10;66.00;;;;;;6246779;28;20127;-71
2024/01/14 07:05:08;;;;;;;11.95;6.25;;;3.10;65.80;;;;;;6249490;28;20025;-71
2024/01/14 07:08:09;;;;;;;15.73;8.38;;;3.10;65.70;;;;;;6248483;28;20083;-71
2024/01/14 07:11:10;;;;;;;18.77;7.85;;;3.00;65.70;;;;;;6290993;28;20033;-71
2024/01/14 07:14:11;;;;;;;10.43;6.63;;;2.90;66.00;;;;;;6268750;28;20472;-71
2024/01/14 07:17:12;;;;;;;10.63;6.30;;;2.90;66.30;;;;;;6231361;28;20033;-72
2024/01/14 07:20:14;;;;;;;21.55;8.05;;;2.90;66.50;;;;;;6252496;28;20095;-71
2024/01/14 07:23:15;;;;;;;29.38;10.32;;;2.90;66.50;;;;;;6236816;28;20052;-71
2024/01/14 07:26:18;;;;;;;22.42;8.60;;;2.80;66.60;;;;;;6234763;28;20132;-71
2024/01/14 07:29:19;;;;;;;14.15;7.90;;;2.90;66.90;;;;;;6250305;28;20071;-71
2024/01/14 07:32:20;;;;;;;22.70;9.82;;;2.90;67.10;;;;;;6243306;28;20032;-72
2024/01/14 07:35:21;;;;;;;21.60;8.60;;;2.90;67.20;;;;;;6246639;28;20037;-72
2024/01/14 07:38:22;;;;;;;27.88;9.98;;;3.00;67.10;;;;;;6250915;28;20025;-73
2024/01/14 07:41:22;;;;;;;18.63;8.93;;;3.10;67.00;;;;;;6239957;28;20036;-72
2024/01/14 07:44:24;;;;;;;28.35;9.50;;;3.10;66.70;;;;;;6251039;28;20079;-71
2024/01/14 07:47:26;;;;;;;17.02;9.05;;;3.10;66.40;;;;;;6247946;28;20541;-72
2024/01/14 07:50:26;;;;;;;17.60;9.68;;;3.10;66.40;;;;;;6253730;28;20021;-72
2024/01/14 07:53:27;;;;;;;13.73;8.10;;;3.10;66.30;;;;;;6251269;28;20033;-71
2024/01/14 07:56:29;;;;;;;16.88;8.38;;;3.00;66.10;;;;;;6245728;28;20456;-71
2024/01/14 07:59:29;;;;;;;22.10;7.90;;;3.00;66.30;;;;;;6240918;28;20013;-71
2024/01/14 08:02:31;;;;;;;20.55;6.88;;;3.00;66.50;;;;;;6242387;28;20124;-71
2024/01/14 08:05:32;;;;;;;14.43;7.55;;;3.00;66.60;;;;;;6245967;28;20101;-70
2024/01/14 08:08:34;;;;;;;23.67;10.98;;;3.10;66.50;;;;;;6245897;28;20411;-73
2024/01/14 08:11:35;;;;;;;27.00;8.82;;;3.10;66.30;;;;;;6249232;28;20510;-72
2024/01/14 08:14:36;;;;;;;13.52;5.78;;;3.00;66.40;;;;;;6247719;28;20021;-71
2024/01/14 08:17:37;;;;;;;26.83;8.70;;;3.10;66.70;;;;;;6236023;28;20101;-72
2024/01/14 08:20:38;;;;;;;17.80;8.57;;;3.00;66.70;;;;;;6248495;28;20039;-72
2024/01/14 08:23:39;;;;;;;21.02;7.95;;;3.20;66.90;;;;;;6245137;28;20411;-72
2024/01/14 08:26:46;;;;;;;24.90;8.18;;;3.20;66.60;;;;;;6241120;28;20022;-73
2024/01/14 08:29:47;;;;;;;21.70;8.85;;;3.30;66.40;;;;;;6253753;28;20366;-73
2024/01/14 08:32:48;;;;;;;12.50;7.10;;;3.30;66.40;;;;;;6250159;28;20249;-73
2024/01/14 08:35:48;;;;;;;15.07;6.35;;;3.30;66.70;;;;;;6249370;28;20111;-71
2024/01/14 08:38:49;;;;;;;22.85;10.70;;;3.40;66.70;;;;;;6244985;28;20028;-73
2024/01/14 08:41:50;;;;;;;16.85;8.45;;;3.50;66.60;;;;;;6247883;28;20026;-73
2024/01/14 08:44:51;;;;;;;17.85;8.13;;;3.60;66.50;;;;;;6245004;28;20021;-73
2024/01/14 08:47:51;;;;;;;25.13;9.45;;;3.70;66.30;;;;;;6240521;28;20061;-72
2024/01/14 08:50:55;;;;;;;25.02;9.43;;;3.80;66.00;;;;;;6251058;28;20052;-72
2024/01/14 08:54:00;;;;;;;22.98;9.60;;;3.90;65.60;;;;;;6248396;28;20033;-73
2024/01/14 08:57:01;;;;;;;32.17;10.80;;;3.90;65.40;;;;;;6262561;28;20480;-72
2024/01/14 09:00:04;;;;;;;31.67;12.20;;;3.90;65.40;;;;;;6250563;28;20131;-72
2024/01/14 09:03:05;;;;;;;29.45;12.57;;;4.00;65.20;;;;;;6243828;28;20043;-71
2024/01/14 09:06:06;;;;;;;18.40;9.10;;;3.90;65.20;;;;;;6245617;28;20032;-73
2024/01/14 09:09:07;;;;;;;17.88;9.80;;;3.90;65.00;;;;;;6277698;28;20036;-72
2024/01/14 09:12:07;;;;;;;17.75;10.73;;;3.80;64.90;;;;;;6275008;28;20024;-73
2024/01/14 09:15:08;;;;;;;20.23;8.38;;;3.80;65.40;;;;;;6246673;28;20028;-73
2024/01/14 09:18:09;;;;;;;20.23;7.95;;;3.90;65.50;;;;;;6242165;28;20032;-73
2024/01/14 09:21:11;;;;;;;29.33;9.50;;;4.00;65.30;;;;;;6240799;28;20056;-72
2024/01/14 09:24:12;;;;;;;17.35;8.77;;;4.10;65.00;;;;;;6240310;28;20575;-71
2024/01/14 09:27:13;;;;;;;13.20;6.60;;;4.10;64.60;;;;;;6247454;28;20374;-73
2024/01/14 09:30:14;;;;;;;16.00;7.95;;;4.10;64.30;;;;;;6241137;28;20117;-73
2024/01/14 09:33:16;;;;;;;20.52;8.57;;;4.20;64.50;;;;;;6243564;28;20091;-72
2024/01/14 09:36:19;;;;;;;15.95;8.18;;;4.20;64.60;;;;;;6276076;28;20024;-73
2024/01/14 09:39:21;;;;;;;20.95;8.32;;;4.40;64.50;;;;;;6261841;28;20731;-72
2024/01/14 09:42:36;;;;;;;14.98;8.10;;;4.40;63.80;;;;;;6244986;28;20049;-73
2024/01/14 09:45:40;;;;;;;21.55;8.40;;;4.50;63.70;;;;;;6244939;28;20104;-71
2024/01/14 09:48:41;;;;;;;21.40;9.63;;;4.50;63.90;;;;;;6277384;28;20036;-71
2024/01/14 09:51:42;;;;;;;20.35;9.18;;;4.70;63.80;;;;;;6250173;28;20441;-72
2024/01/14 09:54:45;;;;;;;30.40;10.18;;;4.80;64.50;;;;;;6247808;28;20028;-72
2024/01/14 09:57:49;;;;;;;22.67;8.75;;;4.90;63.40;;;;;;6244914;28;20448;-72
2024/01/14 10:00:51;;;;;;;21.27;9.18;;;5.00;63.00;;;;;;6249464;28;20021;-72
2024/01/14 10:03:52;;;;;;;33.47;9.15;;;5.00;62.90;;;;;;6245312;28;20549;-72
2024/01/14 10:06:54;;;;;;;25.92;11.65;;;5.10;62.90;;;;;;6243363;28;20021;-72
2024/01/14 10:09:55;;;;;;;38.25;13.98;;;5.10;62.80;;;;;;6230926;28;20512;-72
2024/01/14 10:12:56;;;;;;;28.52;13.77;;;5.20;62.80;;;;;;6249397;28;20112;-72
2024/01/14 10:15:57;;;;;;;33.30;14.15;;;5.20;62.70;;;;;;6256003;28;20025;-73
2024/01/14 10:18:58;;;;;;;23.27;12.07;;;5.30;62.60;;;;;;6242719;28;20392;-71
2024/01/14 10:22:00;;;;;;;30.08;10.60;;;5.50;62.60;;;;;;6243959;28;20029;-72
2024/01/14 10:25:01;;;;;;;29.25;10.80;;;5.60;62.30;;;;;;6249432;28;20105;-73
2024/01/14 10:28:05;;;;;;;15.85;8.98;;;5.70;62.00;;;;;;6251765;28;20025;-74
2024/01/14 10:31:09;;;;;;;24.60;10.60;;;5.70;61.70;;;;;;6250933;28;20017;-72
2024/01/14 10:34:10;;;;;;;28.08;9.85;;;5.80;61.40;;;;;;6253420;28;20017;-72
2024/01/14 10:37:11;;;;;;;31.88;12.48;;;5.90;61.40;;;;;;6243357;28;20028;-72
2024/01/14 10:40:13;;;;;;;25.15;11.30;;;5.90;61.50;;;;;;6252953;28;20017;-73
2024/01/14 10:43:15;;;;;;;22.77;10.27;;;6.20;61.60;;;;;;6247736;28;20023;-73
2024/01/14 10:46:16;;;;;;;27.00;11.93;;;6.30;61.20;;;;;;6249172;28;20067;-73
2024/01/14 10:49:24;;;;;;;28.63;11.93;;;6.50;60.70;;;;;;6239941;28;20480;-73
2024/01/14 10:52:29;;;;;;;31.98;11.50;;;6.60;60.30;;;;;;6251996;28;20028;-71
2024/01/14 10:55:48;;;;;;;18.33;9.52;;;6.50;59.70;;;;;;6253481;28;20021;-72
2024/01/14 10:58:53;;;;;;;21.92;10.25;;;6.40;59.50;;;;;;6283063;28;20456;-72
2024/01/14 11:01:57;;;;;;;24.20;9.38;;;6.30;59.60;;;;;;6247975;28;20032;-73
2024/01/14 11:04:59;;;;;;;28.98;11.75;;;6.10;59.90;;;;;;6250781;28;20080;-72
2024/01/14 11:08:01;;;;;;;31.83;11.85;;;6.10;60.40;;;;;;6250590;28;20671;-73
2024/01/14 11:11:04;;;;;;;28.05;10.43;;;6.10;60.70;;;;;;6254932;28;20029;-73
2024/01/14 11:14:19;;;;;;;25.30;10.57;;;6.20;60.80;;;;;;6253035;28;20024;-72
2024/01/14 11:17:46;;;;;;;41.60;13.80;;;6.30;60.60;;;;;;6263873;28;20033;-73
2024/01/14 11:20:58;;;;;;;14.55;7.75;;;6.30;60.40;;;;;;6248945;28;20147;-72
2024/01/14 11:23:59;;;;;;;26.73;12.18;;;6.40;60.20;;;;;;6245565;28;20786;-72
2024/01/14 11:27:00;;;;;;;32.08;11.50;;;6.40;60.00;;;;;;6248019;28;20025;-70
2024/01/14 11:30:01;;;;;;;30.60;11.50;;;6.40;60.00;;;;;;6254227;28;20095;-72
2024/01/14 11:33:31;;;;;;;16.67;7.18;;;6.40;60.00;;;;;;6239991;28;20676;-72
2024/01/14 11:36:55;;;;;;;26.55;10.32;;;6.40;60.00;;;;;;6244915;28;20100;-73
2024/01/14 11:40:29;;;;;;;30.35;11.13;;;6.50;60.20;;;;;;6250590;28;20039;-73
2024/01/14 11:43:35;;;;;;;27.08;11.82;;;7.10;59.80;;;;;;6140832;28;20065;-72
2024/01/14 11:46:37;;;;;;;13.50;7.72;;;7.50;59.10;;;;;;6144171;28;20082;-72
2024/01/14 11:49:39;;;;;;;27.10;10.38;;;7.80;58.50;;;;;;6153440;28;20031;-72
2024/01/14 11:52:51;;;;;;;22.83;7.95;;;7.80;57.90;;;;;;6132020;28;20039;-73
2024/01/14 11:55:53;;;;;;;27.75;9.90;;;7.80;57.80;;;;;;6158112;28;20035;-72
2024/01/14 11:58:57;;;;;;;28.95;12.38;;;7.90;57.90;;;;;;6102284;28;20635;-73
2024/01/14 12:01:59;;;;;;;21.90;8.65;;;7.90;57.90;;;;;;6132370;28;20029;-72
2024/01/14 12:05:16;;;;;;;17.92;7.50;;;8.00;57.40;;;;;;6133086;28;20368;-73
2024/01/14 12:08:18;;;;;;;22.10;8.32;;;8.00;57.40;;;;;;6151463;28;20050;-73
2024/01/14 12:11:19;;;;;;;24.95;8.70;;;8.00;57.40;;;;;;6127131;28;20039;-74
2024/01/14 12:14:20;;;;;;;15.68;6.93;;;8.10;57.30;;;;;;6134996;28;20022;-73
2024/01/14 12:17:21;;;;;;;24.80;9.50;;;8.10;57.10;;;;;;6133292;28;20519;-72
2024/01/14 12:20:23;;;;;;;20.63;9.00;;;8.20;57.10;;;;;;6264507;28;20089;-72
2024/01/14 12:23:26;;;;;;;29.92;11.98;;;8.30;57.10;;;;;;6246691;28;20022;-73
2024/01/14 12:26:27;;;;;;;18.17;7.07;;;8.40;56.90;;;;;;6247402;28;20135;-73
2024/01/14 12:29:30;;;;;;;19.20;8.00;;;8.50;56.70;;;;;;6246778;28;20448;-73
2024/01/14 12:32:33;;;;;;;22.80;8.88;;;8.50;56.80;;;;;;6281331;28;20033;-74
2024/01/14 12:35:35;;;;;;;29.58;9.65;;;8.50;56.90;;;;;;6231444;28;20953;-73
2024/01/14 12:38:36;;;;;;;26.13;9.88;;;8.60;56.90;;;;;;6261205;28;20553;-74
2024/01/14 12:41:37;;;;;;;21.90;8.95;;;8.60;56.80;;;;;;6233403;28;20032;-72
2024/01/14 12:44:42;;;;;;;22.33;8.60;;;8.60;56.50;;;;;;6247649;28;20020;-72
2024/01/14 12:47:43;;;;;;;24.08;8.02;;;8.70;56.40;;;;;;6263408;28;20384;-74
2024/01/14 12:50:44;;;;;;;36.92;7.95;;;8.70;56.20;;;;;;6245691;28;20077;-72
2024/01/14 12:53:55;;;;;;;23.58;9.43;;;8.60;56.20;;;;;;6245985;28;20033;-73
2024/01/14 12:57:06;;;;;;;28.05;10.73;;;8.50;56.30;;;;;;6273696;28;20179;-74
2024/01/14 13:00:09;;;;;;;32.83;9.52;;;8.60;56.60;;;;;;6235676;28;20128;-73
2024/01/14 13:03:10;;;;;;;23.70;8.93;;;8.60;56.40;;;;;;6244486;28;20032;-72
2024/01/14 13:06:11;;;;;;;25.90;11.10;;;8.50;56.60;;;;;;6279134;28;20568;-73
2024/01/14 13:09:12;;;;;;;29.23;10.77;;;8.50;56.80;;;;;;6229853;28;20028;-72
2024/01/14 13:12:13;;;;;;;28.15;10.05;;;8.60;56.90;;;;;;6251197;28;20076;-73
2024/01/14 13:15:14;;;;;;;32.40;11.77;;;8.60;56.70;;;;;;6247997;28;20089;-75
2024/01/14 13:18:16;;;;;;;24.40;10.20;;;8.60;56.70;;;;;;6212250;28;20405;-74
2024/01/14 13:21:18;;;;;;;23.90;8.98;;;8.60;56.90;;;;;;6243508;28;20029;-74
2024/01/14 13:24:19;;;;;;;24.02;9.30;;;8.60;57.00;;;;;;6247420;28;20013;-73
2024/01/14 13:27:19;;;;;;;24.73;8.77;;;8.60;56.90;;;;;;6244494;28;20087;-72
2024/01/14 13:30:22;;;;;;;23.88;9.85;;;8.50;56.80;;;;;;6262845;28;20319;-74
2024/01/14 13:33:23;;;;;;;25.35;10.02;;;8.40;56.80;;;;;;6244240;28;20064;-73
2024/01/14 13:36:23;;;;;;;29.65;9.70;;;8.40;57.70;;;;;;6230354;28;20120;-73
2024/01/14 13:39:24;;;;;;;33.63;11.77;;;8.40;57.20;;;;;;6245139;28;20094;-72
2024/01/14 13:42:25;;;;;;;25.33;10.73;;;8.40;57.20;;;;;;6246976;28;20021;-74
2024/01/14 13:45:30;;;;;;;32.75;10.98;;;8.50;57.40;;;;;;6225997;28;20021;-74
2024/01/14 13:48:31;;;;;;;32.88;13.43;;;8.60;57.40;;;;;;6244411;28;20087;-74
2024/01/14 13:51:33;;;;;;;24.42;10.05;;;8.60;57.40;;;;;;6214151;28;20109;-74
2024/01/14 13:54:34;;;;;;;22.30;9.70;;;8.50;57.30;;;;;;6242007;28;20619;-75
2024/01/14 13:57:35;;;;;;;23.42;9.38;;;8.50;57.30;;;;;;6244033;28;20037;-75
2024/01/14 14:00:37;;;;;;;17.60;8.57;;;8.50;57.40;;;;;;6251145;28;20044;-73
2024/01/14 14:03:37;;;;;;;31.10;11.73;;;8.50;57.50;;;;;;6252974;28;20076;-73
2024/01/14 14:06:39;;;;;;;28.05;9.60;;;8.60;57.50;;;;;;6245885;28;20128;-72
2024/01/14 14:09:41;;;;;;;22.92;9.23;;;8.60;57.30;;;;;;6253895;28;20044;-72
2024/01/14 14:12:41;;;;;;;25.45;10.82;;;8.50;57.20;;;;;;6250009;28;20029;-74
2024/01/14 14:15:42;;;;;;;35.90;11.05;;;8.40;57.30;;;;;;6232816;28;20737;-74
2024/01/14 14:18:43;;;;;;;29.40;10.35;;;8.50;57.30;;;;;;6245463;28;20513;-74
2024/01/14 14:21:44;;;;;;;23.52;10.60;;;8.50;57.40;;;;;;6242510;28;20022;-75
2024/01/14 14:24:45;;;;;;;35.53;11.60;;;8.50;57.50;;;;;;6250182;28;20497;-74
2024/01/14 14:27:47;;;;;;;27.27;11.30;;;8.50;57.50;;;;;;6254497;28;20175;-75
2024/01/14 14:30:48;;;;;;;27.90;11.13;;;8.50;57.50;;;;;;6254683;28;20049;-74
2024/01/14 14:33:49;;;;;;;29.35;10.73;;;8.70;57.70;;;;;;6252192;28;20239;-75
2024/01/14 14:36:50;;;;;;;28.83;10.40;;;8.60;57.60;;;;;;6252679;28;20066;-76
2024/01/14 14:39:51;;;;;;;32.90;12.70;;;8.50;57.50;;;;;;6252772;28;20425;-74
2024/01/14 14:42:53;;;;;;;26.50;10.63;;;8.60;57.70;;;;;;6246040;28;20118;-75
2024/01/14 14:45:55;;;;;;;34.28;10.82;;;8.60;57.60;;;;;;6252875;28;20186;-75
2024/01/14 14:48:56;;;;;;;23.60;10.35;;;8.60;57.60;;;;;;6249939;28;20021;-74
2024/01/14 14:51:57;;;;;;;19.95;8.80;;;8.60;57.60;;;;;;6245180;28;20045;-73
2024/01/14 14:55:00;;;;;;;30.67;10.57;;;8.60;57.60;;;;;;6246672;28;20069;-74
2024/01/14 14:58:01;;;;;;;25.10;10.40;;;8.60;57.60;;;;;;6259525;28;20029;-74
2024/01/14 15:01:02;;;;;;;24.63;10.77;;;8.60;57.70;;;;;;6236558;28;20029;-75
2024/01/14 15:04:04;;;;;;;29.70;10.82;;;8.50;57.50;;;;;;6247156;28;20055;-74
2024/01/14 15:07:04;;;;;;;32.30;9.60;;;8.40;57.50;;;;;;6241487;28;20452;-74
2024/01/14 15:10:06;;;;;;;29.10;10.20;;;8.30;57.50;;;;;;6268848;28;20037;-73
2024/01/14 15:13:06;;;;;;;32.72;11.32;;;8.30;57.90;;;;;;6247536;28;20535;-74
2024/01/14 15:16:08;;;;;;;35.95;11.57;;;8.20;58.10;;;;;;6247944;28;20033;-74
2024/01/14 15:19:09;;;;;;;25.58;9.98;;;8.20;58.10;;;;;;6252609;28;20057;-75
2024/01/14 15:22:10;;;;;;;22.00;9.68;;;8.10;58.20;;;;;;6243937;28;20017;-73
2024/01/14 15:25:11;;;;;;;19.92;9.18;;;8.20;58.20;;;;;;6235899;28;20098;-73
2024/01/14 15:28:12;;;;;;;23.42;11.85;;;8.20;58.30;;;;;;6270306;28;20029;-74
2024/01/14 15:31:14;;;;;;;29.90;12.20;;;8.20;58.40;;;;;;6248182;28;20489;-74
2024/01/14 15:34:16;;;;;;;24.40;10.07;;;8.20;58.40;;;;;;6250114;28;20013;-75
2024/01/14 15:37:17;;;;;;;27.00;11.95;;;8.30;58.50;;;;;;6251854;28;20024;-74
2024/01/14 15:40:18;;;;;;;22.55;9.88;;;8.30;58.40;;;;;;6251525;28;20019;-76
2024/01/14 15:43:19;;;;;;;32.72;10.73;;;8.30;58.40;;;;;;6267125;28;20104;-74